Wood River, Illinois
Current Conditions -  °F | °C
As of 1:50 PM on Wednesday 28 Jan 2015 (Local Time) from KALN Reporting Station
Few Clouds Few Clouds  
Wind Chill: 37°   Ceiling: Unl
Heat Index: 45°   Visibility: 10mi
Dew Point: 30°   Wind: 17mph
Humidity: 57%   Direction: 130°SE
Pressure: 30.07"   Gusts: NA
Location:  38.86°N, 90.1°W
Report Text: KALN 281950Z 13015KT 10SM FEW200 07/M01 A3007
Loading
Personal Weather Stations






























Interactive Weather Map New forecast layout! Learn more

10-Day Weather Forecast

Advertisements
Track Severe Weather on mobile